Time;durP1;ratioP1;P1;durP2;ratioP2;P2;SDS_P1;SDS_P2;PMS_P1;PMS_P2;Temp;Humidity;BMP_temperature;BMP_pressure;BME280_temperature;BME280_humidity;BME280_pressure;Samples;Min_cycle;Max_cycle;Signal;HPM_P1;HPM_P2
2023/07/25 00:00:11;;;;;;;0.00;0.00;;;17.40;99.90;;;;;;5090847;28;20305;-65
2023/07/25 00:02:36;;;;;;;0.00;0.00;;;17.30;99.90;;;;;;5090379;28;20682;-65
2023/07/25 00:05:03;;;;;;;0.00;0.00;;;17.40;99.90;;;;;;5090161;28;20184;-65
2023/07/25 00:07:29;;;;;;;0.00;0.00;;;17.40;99.90;;;;;;5089813;28;20190;-65
2023/07/25 00:09:56;;;;;;;0.05;0.05;;;17.40;99.90;;;;;;5090178;28;20263;-65
2023/07/25 00:12:22;;;;;;;0.00;0.00;;;17.30;99.90;;;;;;5089817;28;20684;-65
2023/07/25 00:14:48;;;;;;;0.00;0.00;;;17.30;99.90;;;;;;5090095;28;20179;-65
2023/07/25 00:17:13;;;;;;;0.00;0.00;;;17.30;99.90;;;;;;5090315;28;20565;-65
2023/07/25 00:19:39;;;;;;;0.00;0.00;;;17.30;99.90;;;;;;5089820;28;20176;-65
2023/07/25 00:22:05;;;;;;;0.00;0.00;;;17.30;99.90;;;;;;5090520;28;20210;-65
2023/07/25 00:24:30;;;;;;;0.00;0.00;;;17.30;99.90;;;;;;5089587;28;20180;-65
2023/07/25 00:26:56;;;;;;;0.00;0.00;;;17.30;99.90;;;;;;5090553;28;20223;-65
2023/07/25 00:29:21;;;;;;;0.00;0.00;;;17.30;99.90;;;;;;5094518;28;20646;-65
2023/07/25 00:31:47;;;;;;;0.10;0.10;;;17.20;99.90;;;;;;5093878;28;20258;-65
2023/07/25 00:34:12;;;;;;;0.00;0.00;;;17.20;99.90;;;;;;5091044;28;20602;-65
2023/07/25 00:36:38;;;;;;;0.00;0.00;;;17.20;99.90;;;;;;5094223;28;20664;-65
2023/07/25 00:39:03;;;;;;;0.00;0.00;;;17.20;99.90;;;;;;5093623;28;20192;-65
2023/07/25 00:41:29;;;;;;;0.00;0.00;;;17.20;99.90;;;;;;5094035;28;20229;-65
2023/07/25 00:43:54;;;;;;;0.00;0.00;;;17.10;99.90;;;;;;5093623;28;20195;-65
2023/07/25 00:46:20;;;;;;;0.00;0.00;;;17.10;99.90;;;;;;5091880;28;20172;-65
2023/07/25 00:48:46;;;;;;;0.00;0.00;;;17.10;99.90;;;;;;5093438;28;20168;-65
2023/07/25 00:51:12;;;;;;;0.00;0.00;;;17.00;99.90;;;;;;5092653;28;20218;-65
2023/07/25 00:53:38;;;;;;;0.00;0.00;;;17.00;99.90;;;;;;5094321;28;20606;-65
2023/07/25 00:56:05;;;;;;;0.00;0.00;;;16.90;99.90;;;;;;5093216;28;20171;-65
2023/07/25 00:58:31;;;;;;;0.00;0.00;;;16.90;99.90;;;;;;5093790;28;20293;-64
2023/07/25 01:01:04;;;;;;;0.00;0.00;;;16.90;99.90;;;;;;5093544;28;20168;-65
2023/07/25 01:03:36;;;;;;;0.00;0.00;;;16.90;99.90;;;;;;5093702;28;20176;-64
2023/07/25 01:06:03;;;;;;;0.00;0.00;;;16.90;99.90;;;;;;5091301;28;20229;-64
2023/07/25 01:08:29;;;;;;;0.00;0.00;;;16.90;99.90;;;;;;5093743;28;20190;-65
2023/07/25 01:10:55;;;;;;;0.00;0.00;;;16.90;99.90;;;;;;5093336;28;20177;-64
2023/07/25 01:13:21;;;;;;;0.00;0.00;;;16.90;99.90;;;;;;5093083;28;20329;-65
2023/07/25 01:15:51;;;;;;;0.00;0.00;;;16.90;99.90;;;;;;5092689;28;20187;-65
2023/07/25 01:18:17;;;;;;;0.00;0.00;;;16.90;99.90;;;;;;5093329;28;20218;-65
2023/07/25 01:20:43;;;;;;;0.05;0.05;;;16.90;99.90;;;;;;5093324;28;20204;-65
2023/07/25 01:23:10;;;;;;;0.00;0.00;;;16.90;99.90;;;;;;5093144;28;20180;-65
2023/07/25 01:25:36;;;;;;;0.00;0.00;;;16.80;99.90;;;;;;5093284;28;20263;-65
2023/07/25 01:28:02;;;;;;;0.00;0.00;;;16.80;99.90;;;;;;5093103;28;20335;-65
2023/07/25 01:30:27;;;;;;;0.00;0.00;;;16.80;99.90;;;;;;5092972;28;20177;-65
2023/07/25 01:32:54;;;;;;;0.00;0.00;;;16.80;99.90;;;;;;5092896;28;20212;-64
2023/07/25 01:35:20;;;;;;;0.00;0.00;;;16.70;99.90;;;;;;5089526;28;20663;-64
2023/07/25 01:37:45;;;;;;;0.00;0.00;;;16.70;99.90;;;;;;5091743;28;20179;-64
2023/07/25 01:40:11;;;;;;;0.00;0.00;;;16.70;99.90;;;;;;5092602;28;20172;-64
2023/07/25 01:42:37;;;;;;;0.00;0.00;;;16.60;99.90;;;;;;5093172;28;20164;-64
2023/07/25 01:45:03;;;;;;;0.00;0.00;;;16.60;99.90;;;;;;5092647;28;20184;-64
2023/07/25 01:47:28;;;;;;;0.00;0.00;;;16.60;99.90;;;;;;5093228;28;20216;-64
2023/07/25 01:49:54;;;;;;;0.00;0.00;;;16.50;99.90;;;;;;5092815;28;20167;-64
2023/07/25 01:52:20;;;;;;;0.00;0.00;;;16.50;99.90;;;;;;5092488;28;20299;-64
2023/07/25 01:54:47;;;;;;;0.00;0.00;;;16.50;99.90;;;;;;5092813;28;20644;-64
2023/07/25 01:57:13;;;;;;;0.00;0.00;;;16.50;99.90;;;;;;5092427;28;20184;-64
2023/07/25 01:59:38;;;;;;;0.00;0.00;;;16.50;99.90;;;;;;5092472;28;20635;-64
2023/07/25 02:02:04;;;;;;;0.17;0.17;;;16.50;99.90;;;;;;5092469;28;20188;-64
2023/07/25 02:04:30;;;;;;;0.00;0.00;;;16.50;99.90;;;;;;5092768;28;20176;-64
2023/07/25 02:06:55;;;;;;;0.00;0.00;;;16.50;99.90;;;;;;5092385;28;20187;-64
2023/07/25 02:09:21;;;;;;;0.00;0.00;;;16.50;99.90;;;;;;5091884;28;20190;-64
2023/07/25 02:11:46;;;;;;;0.00;0.00;;;16.50;99.90;;;;;;5092336;28;20203;-64
2023/07/25 02:14:12;;;;;;;0.00;0.00;;;16.60;99.90;;;;;;5092396;28;20520;-65
2023/07/25 02:16:39;;;;;;;0.00;0.00;;;16.60;99.90;;;;;;5092408;28;20164;-64
2023/07/25 02:19:05;;;;;;;0.00;0.00;;;16.60;99.90;;;;;;5092662;28;20187;-64
2023/07/25 02:21:30;;;;;;;0.00;0.00;;;16.60;99.90;;;;;;5090564;28;20279;-64
2023/07/25 02:23:56;;;;;;;0.00;0.00;;;16.70;99.90;;;;;;5092016;28;20643;-64
2023/07/25 02:26:21;;;;;;;0.00;0.00;;;16.70;99.90;;;;;;5091596;28;20196;-64
2023/07/25 02:28:47;;;;;;;0.00;0.00;;;16.70;99.90;;;;;;5092093;28;20212;-64
2023/07/25 02:31:12;;;;;;;0.00;0.00;;;16.70;99.90;;;;;;5092338;28;20223;-64
2023/07/25 02:33:38;;;;;;;0.00;0.00;;;16.70;99.90;;;;;;5087079;28;20228;-64
2023/07/25 02:36:04;;;;;;;0.00;0.00;;;16.60;99.90;;;;;;5092014;28;20190;-63
2023/07/25 02:38:30;;;;;;;0.00;0.00;;;16.60;99.90;;;;;;5091896;28;20176;-64
2023/07/25 02:40:55;;;;;;;0.00;0.00;;;16.60;99.90;;;;;;5091772;28;20588;-63
2023/07/25 02:43:23;;;;;;;0.00;0.00;;;16.60;99.90;;;;;;5091805;28;20188;-63
2023/07/25 02:45:50;;;;;;;0.00;0.00;;;16.60;99.90;;;;;;5091906;28;20206;-63
2023/07/25 02:48:16;;;;;;;0.00;0.00;;;16.70;99.90;;;;;;5089199;28;20188;-64
2023/07/25 02:50:42;;;;;;;0.00;0.00;;;16.70;99.90;;;;;;5090681;28;20176;-64
2023/07/25 02:53:07;;;;;;;0.00;0.00;;;16.70;99.90;;;;;;5091287;28;20303;-64
2023/07/25 02:55:33;;;;;;;0.00;0.00;;;16.70;99.90;;;;;;5090231;28;20198;-64
2023/07/25 02:57:58;;;;;;;0.00;0.00;;;16.70;99.90;;;;;;5091286;28;20195;-64
2023/07/25 03:00:24;;;;;;;0.00;0.00;;;16.70;99.90;;;;;;5090122;28;20180;-64
2023/07/25 03:02:50;;;;;;;0.00;0.00;;;16.70;99.90;;;;;;5091203;28;20178;-64
2023/07/25 03:05:16;;;;;;;0.00;0.00;;;16.70;99.90;;;;;;5090741;28;20588;-64
2023/07/25 03:07:42;;;;;;;0.00;0.00;;;16.70;99.90;;;;;;5090979;28;20230;-65
2023/07/25 03:10:08;;;;;;;0.00;0.00;;;16.80;99.90;;;;;;5090667;28;20160;-64
2023/07/25 03:12:34;;;;;;;0.00;0.00;;;16.70;99.90;;;;;;5091145;28;20222;-64
2023/07/25 03:15:00;;;;;;;0.00;0.00;;;16.80;99.90;;;;;;5090876;28;20180;-64
2023/07/25 03:17:26;;;;;;;0.00;0.00;;;16.70;99.90;;;;;;5090755;28;20893;-64
2023/07/25 03:19:51;;;;;;;0.00;0.00;;;16.70;99.90;;;;;;5090722;28;20187;-64
2023/07/25 03:22:19;;;;;;;0.00;0.00;;;16.70;99.90;;;;;;5091152;28;20184;-65
2023/07/25 03:24:44;;;;;;;0.00;0.00;;;16.70;99.90;;;;;;5090924;28;20184;-65
2023/07/25 03:27:10;;;;;;;0.00;0.00;;;16.60;99.90;;;;;;5090844;28;20239;-65
2023/07/25 03:29:35;;;;;;;0.00;0.00;;;16.60;99.90;;;;;;5091056;28;20217;-65
2023/07/25 03:32:01;;;;;;;0.00;0.00;;;16.60;99.90;;;;;;5081483;28;20574;-65
2023/07/25 03:34:27;;;;;;;0.00;0.00;;;16.60;99.90;;;;;;5090200;28;20262;-64
2023/07/25 03:36:52;;;;;;;0.00;0.00;;;16.60;99.90;;;;;;5090558;28;20192;-65
2023/07/25 03:39:18;;;;;;;0.00;0.00;;;16.60;99.90;;;;;;5090873;28;20550;-64
2023/07/25 03:41:43;;;;;;;0.00;0.00;;;16.60;99.90;;;;;;5089953;28;20225;-65
2023/07/25 03:44:11;;;;;;;0.00;0.00;;;16.50;99.90;;;;;;5092913;28;20187;-65
2023/07/25 03:46:36;;;;;;;0.00;0.00;;;16.50;99.90;;;;;;5092348;28;20176;-65
2023/07/25 03:49:02;;;;;;;0.00;0.00;;;16.50;99.90;;;;;;5089077;28;20671;-64
2023/07/25 03:51:27;;;;;;;0.03;0.03;;;16.50;99.90;;;;;;5090138;28;20218;-65
2023/07/25 03:53:53;;;;;;;0.00;0.00;;;16.50;99.90;;;;;;5090725;28;20194;-63
2023/07/25 03:56:18;;;;;;;0.00;0.00;;;16.50;99.90;;;;;;5090155;28;20168;-65
2023/07/25 03:58:44;;;;;;;0.00;0.00;;;16.60;99.90;;;;;;5089600;28;20176;-65
2023/07/25 04:01:09;;;;;;;0.00;0.00;;;16.60;99.90;;;;;;5089716;28;20770;-65
2023/07/25 04:03:35;;;;;;;0.00;0.00;;;16.60;99.90;;;;;;5089637;28;20180;-65
2023/07/25 04:06:00;;;;;;;0.00;0.00;;;16.60;99.90;;;;;;5089517;28;20176;-67
2023/07/25 04:08:26;;;;;;;0.00;0.00;;;16.60;99.90;;;;;;5090258;28;20176;-65
2023/07/25 04:10:51;;;;;;;0.00;0.00;;;16.50;99.90;;;;;;5090258;28;20264;-63
2023/07/25 04:13:17;;;;;;;0.00;0.00;;;16.50;99.90;;;;;;5077793;28;20220;-64
2023/07/25 04:15:42;;;;;;;0.00;0.00;;;16.50;99.90;;;;;;5090307;28;20172;-64
2023/07/25 04:18:08;;;;;;;0.00;0.00;;;16.40;99.90;;;;;;5090091;28;20187;-64
2023/07/25 04:20:33;;;;;;;0.00;0.00;;;16.40;99.90;;;;;;5089620;28;20184;-64
2023/07/25 04:22:59;;;;;;;0.00;0.00;;;16.30;99.90;;;;;;5090221;28;20184;-64
2023/07/25 04:25:24;;;;;;;0.00;0.00;;;16.30;99.90;;;;;;5089484;28;20184;-64
2023/07/25 04:27:50;;;;;;;0.00;0.00;;;16.40;99.90;;;;;;5089995;28;20246;-64
2023/07/25 04:30:15;;;;;;;0.00;0.00;;;16.40;99.90;;;;;;5090648;28;20233;-64
2023/07/25 04:32:41;;;;;;;0.00;0.00;;;16.40;99.90;;;;;;5090830;28;20243;-64
2023/07/25 04:35:06;;;;;;;0.00;0.00;;;16.40;99.90;;;;;;5082108;28;20283;-64
2023/07/25 04:37:32;;;;;;;0.00;0.00;;;16.40;99.90;;;;;;5090701;28;20646;-64
2023/07/25 04:39:57;;;;;;;0.00;0.00;;;16.50;99.90;;;;;;5081225;28;20180;-63
2023/07/25 04:42:23;;;;;;;0.00;0.00;;;16.50;99.90;;;;;;5090361;28;20233;-64
2023/07/25 04:44:48;;;;;;;0.00;0.00;;;16.50;99.90;;;;;;5090275;28;20647;-64
2023/07/25 04:47:14;;;;;;;0.20;0.10;;;16.50;99.90;;;;;;5090380;28;20635;-64
2023/07/25 04:49:39;;;;;;;0.00;0.00;;;16.50;99.90;;;;;;5090280;28;20278;-64
2023/07/25 04:52:05;;;;;;;0.00;0.00;;;16.60;99.90;;;;;;5090314;28;20208;-64
2023/07/25 04:54:31;;;;;;;0.00;0.00;;;16.70;99.90;;;;;;5089874;28;20208;-64
2023/07/25 04:56:56;;;;;;;0.00;0.00;;;16.70;99.90;;;;;;5090352;28;20190;-64
2023/07/25 04:59:22;;;;;;;0.00;0.00;;;16.80;99.90;;;;;;5090182;28;20225;-64
2023/07/25 05:01:47;;;;;;;0.00;0.00;;;16.80;99.90;;;;;;5090018;28;20191;-63
2023/07/25 05:04:13;;;;;;;0.00;0.00;;;16.80;99.90;;;;;;5089591;28;20172;-64
2023/07/25 05:06:38;;;;;;;0.00;0.00;;;16.80;99.90;;;;;;5089786;28;20172;-63
2023/07/25 05:09:04;;;;;;;0.00;0.00;;;16.90;99.90;;;;;;5090227;28;20184;-63
2023/07/25 05:11:29;;;;;;;0.00;0.00;;;16.90;99.90;;;;;;5089854;28;20246;-63
2023/07/25 05:13:55;;;;;;;0.00;0.00;;;16.90;99.90;;;;;;5092247;28;20199;-63
2023/07/25 05:16:20;;;;;;;0.00;0.00;;;16.80;99.90;;;;;;5093359;28;20176;-63
2023/07/25 05:18:46;;;;;;;0.00;0.00;;;16.80;99.90;;;;;;5093634;28;20237;-63
2023/07/25 05:21:11;;;;;;;0.00;0.00;;;16.80;99.90;;;;;;5093186;28;20266;-64
2023/07/25 05:23:36;;;;;;;0.00;0.00;;;16.80;99.90;;;;;;5093723;28;20253;-63
2023/07/25 05:26:02;;;;;;;0.00;0.00;;;16.80;99.90;;;;;;5093613;28;20176;-64
2023/07/25 05:28:28;;;;;;;0.00;0.00;;;16.80;99.90;;;;;;5093308;28;20240;-64
2023/07/25 05:30:53;;;;;;;0.00;0.00;;;16.80;99.90;;;;;;5093630;28;20180;-63
2023/07/25 05:33:19;;;;;;;0.00;0.00;;;16.70;99.90;;;;;;5093411;28;20234;-63
2023/07/25 05:35:44;;;;;;;0.00;0.00;;;16.70;99.90;;;;;;5093382;28;20172;-64
2023/07/25 05:38:10;;;;;;;0.00;0.00;;;16.70;99.90;;;;;;5091982;28;20631;-63
2023/07/25 05:40:35;;;;;;;0.00;0.00;;;16.70;99.90;;;;;;5093058;28;20263;-64
2023/07/25 05:43:02;;;;;;;0.00;0.00;;;16.70;99.90;;;;;;5090775;28;20515;-63
2023/07/25 05:45:28;;;;;;;0.00;0.00;;;16.70;99.90;;;;;;5096364;28;20233;-63
2023/07/25 05:47:53;;;;;;;0.15;0.15;;;16.70;99.90;;;;;;5113848;28;20175;-63
2023/07/25 05:50:19;;;;;;;0.10;0.10;;;16.80;99.90;;;;;;5109450;28;20219;-63
2023/07/25 05:52:44;;;;;;;0.00;0.00;;;16.80;99.90;;;;;;5092724;28;20616;-63
2023/07/25 05:55:10;;;;;;;0.00;0.00;;;16.80;99.90;;;;;;5092932;28;20173;-63
2023/07/25 05:57:35;;;;;;;0.00;0.00;;;16.90;99.90;;;;;;5092969;28;20180;-63
2023/07/25 06:00:01;;;;;;;0.00;0.00;;;16.90;99.90;;;;;;5092881;28;20179;-63
2023/07/25 06:02:27;;;;;;;0.00;0.00;;;16.90;99.90;;;;;;5093112;28;20183;-64
2023/07/25 06:04:52;;;;;;;0.00;0.00;;;16.90;99.90;;;;;;5092765;28;20161;-63
2023/07/25 06:07:18;;;;;;;0.00;0.00;;;16.80;99.90;;;;;;5092414;28;20655;-64
2023/07/25 06:09:43;;;;;;;0.00;0.00;;;16.80;99.90;;;;;;5091456;28;20171;-63
2023/07/25 06:12:09;;;;;;;0.00;0.00;;;16.80;99.90;;;;;;5091133;28;20718;-64
2023/07/25 06:14:35;;;;;;;0.00;0.00;;;16.80;99.90;;;;;;5092566;28;20179;-63
2023/07/25 06:17:01;;;;;;;0.10;0.10;;;16.80;99.90;;;;;;5092433;28;20542;-63
2023/07/25 06:19:26;;;;;;;0.13;0.13;;;16.80;99.90;;;;;;5092501;28;20583;-63
2023/07/25 06:21:52;;;;;;;0.00;0.00;;;16.80;99.90;;;;;;5092516;28;20640;-63
2023/07/25 06:24:17;;;;;;;0.00;0.00;;;16.80;99.90;;;;;;5091723;28;20183;-63
2023/07/25 06:26:43;;;;;;;0.00;0.00;;;16.90;99.90;;;;;;5092128;28;20182;-63
2023/07/25 06:29:08;;;;;;;0.00;0.00;;;16.90;99.90;;;;;;5092262;28;20234;-63
2023/07/25 06:31:35;;;;;;;0.00;0.00;;;16.90;99.90;;;;;;5092348;28;20208;-63
2023/07/25 06:34:00;;;;;;;0.00;0.00;;;16.90;99.90;;;;;;5092220;28;20596;-63
2023/07/25 06:36:26;;;;;;;0.03;0.03;;;16.90;99.90;;;;;;5092262;28;20251;-63
2023/07/25 06:38:51;;;;;;;0.35;0.17;;;16.90;99.90;;;;;;5092239;28;20247;-63
2023/07/25 06:41:17;;;;;;;0.00;0.00;;;17.00;99.90;;;;;;5092076;28;20229;-63
2023/07/25 06:43:42;;;;;;;0.10;0.10;;;17.00;99.90;;;;;;5092331;28;20238;-64
2023/07/25 06:46:08;;;;;;;0.40;0.40;;;17.20;99.90;;;;;;5092033;28;20179;-64
2023/07/25 06:48:33;;;;;;;0.00;0.00;;;17.40;99.90;;;;;;5092193;28;20172;-63
2023/07/25 06:50:59;;;;;;;0.00;0.00;;;17.50;99.90;;;;;;5087317;28;20196;-63
2023/07/25 06:53:24;;;;;;;0.00;0.00;;;17.60;99.90;;;;;;5071873;28;20682;-63
2023/07/25 06:55:50;;;;;;;0.00;0.00;;;17.80;99.90;;;;;;5072019;28;20230;-64
2023/07/25 06:58:15;;;;;;;0.00;0.00;;;18.10;99.90;;;;;;5071962;28;20173;-63
2023/07/25 07:00:41;;;;;;;0.00;0.00;;;18.20;99.90;;;;;;5071810;28;20213;-64
2023/07/25 07:03:07;;;;;;;0.00;0.00;;;18.30;99.90;;;;;;5071949;28;20250;-64
2023/07/25 07:05:32;;;;;;;0.00;0.00;;;18.40;99.90;;;;;;5071808;28;20541;-64
2023/07/25 07:07:59;;;;;;;0.00;0.00;;;18.50;99.90;;;;;;5071759;28;20173;-64
2023/07/25 07:10:25;;;;;;;1.00;0.35;;;18.60;99.90;;;;;;5071690;28;20188;-64
2023/07/25 07:12:53;;;;;;;0.00;0.00;;;18.60;99.90;;;;;;5071882;28;20246;-63
2023/07/25 07:15:20;;;;;;;0.00;0.00;;;18.80;99.90;;;;;;5071784;28;20681;-64
2023/07/25 07:17:45;;;;;;;0.00;0.00;;;19.00;99.90;;;;;;5071704;28;20619;-64
2023/07/25 07:20:11;;;;;;;0.00;0.00;;;19.20;99.90;;;;;;5071610;28;20179;-64
2023/07/25 07:22:37;;;;;;;0.00;0.00;;;19.70;99.90;;;;;;5071821;28;20177;-64
2023/07/25 07:25:03;;;;;;;0.00;0.00;;;20.30;99.90;;;;;;5071759;28;20583;-64
2023/07/25 07:27:28;;;;;;;0.00;0.00;;;20.90;99.90;;;;;;5071285;28;20322;-64
2023/07/25 07:29:54;;;;;;;0.00;0.00;;;21.60;99.90;;;;;;5071664;28;20172;-64
2023/07/25 07:32:19;;;;;;;0.00;0.00;;;22.40;99.90;;;;;;5071373;28;20631;-64
2023/07/25 07:34:45;;;;;;;0.00;0.00;;;23.20;99.90;;;;;;5071721;28;20664;-64
2023/07/25 07:37:10;;;;;;;0.00;0.00;;;23.90;99.90;;;;;;5071333;28;20226;-64
2023/07/25 07:39:38;;;;;;;0.00;0.00;;;24.40;99.90;;;;;;5077388;28;20195;-64
2023/07/25 07:42:04;;;;;;;0.00;0.00;;;24.40;99.90;;;;;;5091790;28;20205;-63
2023/07/25 07:44:29;;;;;;;0.00;0.00;;;24.50;99.90;;;;;;5091555;28;20179;-64
2023/07/25 07:46:55;;;;;;;0.00;0.00;;;24.70;99.90;;;;;;5091581;28;20570;-64
2023/07/25 07:49:21;;;;;;;0.00;0.00;;;24.90;99.90;;;;;;5091370;28;20179;-64
2023/07/25 07:51:46;;;;;;;0.00;0.00;;;25.10;99.90;;;;;;5091500;28;20295;-64
2023/07/25 07:54:12;;;;;;;0.00;0.00;;;24.50;99.90;;;;;;5091433;28;20249;-64
2023/07/25 07:56:37;;;;;;;0.00;0.00;;;24.50;99.90;;;;;;5091451;28;20620;-64
2023/07/25 07:59:03;;;;;;;0.20;0.20;;;24.90;99.90;;;;;;5091485;28;20261;-64
2023/07/25 08:01:28;;;;;;;0.00;0.00;;;25.50;99.90;;;;;;5091337;28;20204;-64
2023/07/25 08:03:54;;;;;;;0.00;0.00;;;26.00;99.90;;;;;;5091277;28;20643;-64
2023/07/25 08:06:19;;;;;;;0.00;0.00;;;26.00;99.10;;;;;;5091089;28;20172;-64
2023/07/25 08:08:45;;;;;;;0.00;0.00;;;25.60;98.90;;;;;;5091439;28;20221;-63
2023/07/25 08:11:10;;;;;;;0.00;0.00;;;25.30;99.50;;;;;;5091146;28;20164;-64
2023/07/25 08:13:36;;;;;;;0.00;0.00;;;24.90;99.10;;;;;;5091164;28;20528;-64
2023/07/25 08:16:02;;;;;;;0.00;0.00;;;24.70;99.80;;;;;;5091068;28;20215;-64
2023/07/25 08:18:27;;;;;;;0.00;0.00;;;24.60;99.70;;;;;;5091002;28;20180;-64
2023/07/25 08:20:58;;;;;;;0.00;0.00;;;24.80;99.90;;;;;;5091185;28;20176;-64
2023/07/25 08:23:24;;;;;;;0.00;0.00;;;25.10;99.90;;;;;;5091080;28;20175;-64
2023/07/25 08:25:50;;;;;;;0.00;0.00;;;25.30;99.50;;;;;;5091191;28;20191;-63
2023/07/25 08:28:16;;;;;;;0.00;0.00;;;25.10;98.70;;;;;;5090768;28;20227;-64
2023/07/25 08:30:42;;;;;;;0.00;0.00;;;24.70;99.00;;;;;;5090981;28;20628;-64
2023/07/25 08:33:08;;;;;;;0.00;0.00;;;24.10;99.00;;;;;;5090883;28;20290;-64
2023/07/25 08:35:34;;;;;;;0.00;0.00;;;23.40;99.90;;;;;;5090911;28;20251;-64
2023/07/25 08:37:59;;;;;;;0.00;0.00;;;22.90;99.90;;;;;;5090882;28;20176;-64
2023/07/25 08:40:25;;;;;;;0.00;0.00;;;22.50;99.90;;;;;;5089389;28;20546;-63
2023/07/25 08:42:51;;;;;;;0.00;0.00;;;22.20;99.90;;;;;;5090993;28;20597;-64
2023/07/25 08:45:19;;;;;;;0.00;0.00;;;22.00;99.90;;;;;;5090727;28;20631;-64
2023/07/25 08:47:45;;;;;;;0.00;0.00;;;21.90;99.90;;;;;;5091109;28;20165;-64
2023/07/25 08:50:15;;;;;;;0.00;0.00;;;22.00;99.90;;;;;;5094770;28;20172;-64
2023/07/25 08:52:49;;;;;;;0.00;0.00;;;22.30;99.90;;;;;;5094641;28;20261;-64
2023/07/25 08:55:15;;;;;;;0.00;0.00;;;22.50;99.90;;;;;;5094751;28;20211;-64
2023/07/25 08:57:42;;;;;;;0.00;0.00;;;22.30;99.90;;;;;;5094713;28;20199;-64
2023/07/25 09:00:08;;;;;;;0.00;0.00;;;22.10;99.90;;;;;;5094714;28;20247;-64
2023/07/25 09:02:34;;;;;;;0.00;0.00;;;22.10;99.90;;;;;;5094579;28;20176;-64
2023/07/25 09:05:00;;;;;;;0.00;0.00;;;22.10;99.90;;;;;;5094454;28;20200;-64
2023/07/25 09:07:26;;;;;;;0.00;0.00;;;22.20;99.90;;;;;;5094462;28;20687;-64
2023/07/25 09:09:52;;;;;;;0.00;0.00;;;22.50;99.90;;;;;;5094530;28;20207;-64
2023/07/25 09:12:18;;;;;;;0.10;0.10;;;22.60;99.90;;;;;;5094145;28;20216;-64
2023/07/25 09:14:43;;;;;;;0.00;0.00;;;22.70;99.90;;;;;;5094476;28;20194;-64
2023/07/25 09:17:09;;;;;;;0.00;0.00;;;22.90;99.90;;;;;;5094453;28;20172;-64
2023/07/25 09:19:35;;;;;;;0.00;0.00;;;23.20;99.90;;;;;;5094439;28;20218;-64
2023/07/25 09:22:01;;;;;;;0.00;0.00;;;23.20;99.90;;;;;;5094064;28;20221;-64
2023/07/25 09:24:39;;;;;;;0.00;0.00;;;23.30;99.90;;;;;;5094160;28;20199;-64
2023/07/25 09:27:19;;;;;;;0.00;0.00;;;23.20;99.90;;;;;;5093994;28;20237;-64
2023/07/25 09:29:47;;;;;;;0.08;0.08;;;23.20;99.90;;;;;;5094281;28;20238;-64
2023/07/25 09:32:24;;;;;;;0.00;0.00;;;23.10;99.90;;;;;;5093940;28;20242;-64
2023/07/25 09:34:54;;;;;;;0.00;0.00;;;22.90;99.90;;;;;;5094138;28;20194;-64
2023/07/25 09:37:20;;;;;;;0.00;0.00;;;22.70;99.90;;;;;;5093794;28;20174;-64
2023/07/25 09:39:45;;;;;;;0.00;0.00;;;22.60;99.90;;;;;;5093738;28;20262;-65
2023/07/25 09:42:11;;;;;;;0.00;0.00;;;22.40;99.90;;;;;;5093913;28;20627;-64
2023/07/25 09:44:36;;;;;;;0.00;0.00;;;22.50;99.90;;;;;;5092522;28;20178;-64
2023/07/25 09:47:02;;;;;;;0.00;0.00;;;22.90;99.90;;;;;;5093617;28;20184;-64
2023/07/25 09:49:27;;;;;;;0.00;0.00;;;23.40;99.90;;;;;;5093549;28;20169;-64
2023/07/25 09:52:00;;;;;;;0.00;0.00;;;23.40;99.90;;;;;;5093505;28;20212;-64
2023/07/25 09:54:26;;;;;;;0.00;0.00;;;23.30;99.90;;;;;;5093579;28;20230;-64
2023/07/25 09:56:52;;;;;;;0.00;0.00;;;23.20;99.90;;;;;;5093683;28;20651;-64
2023/07/25 09:59:18;;;;;;;0.00;0.00;;;23.20;99.90;;;;;;5093321;28;20203;-64
2023/07/25 10:01:44;;;;;;;0.00;0.00;;;23.20;99.90;;;;;;5093563;28;20223;-64
2023/07/25 10:04:11;;;;;;;0.00;0.00;;;23.20;99.90;;;;;;5093536;28;20592;-63
2023/07/25 10:06:37;;;;;;;0.00;0.00;;;23.30;99.90;;;;;;5093396;28;20164;-64
2023/07/25 10:09:03;;;;;;;0.00;0.00;;;23.40;99.90;;;;;;5093438;28;20180;-64
2023/07/25 10:11:30;;;;;;;0.00;0.00;;;23.30;99.90;;;;;;5093237;28;20172;-64
2023/07/25 10:13:56;;;;;;;0.00;0.00;;;23.20;99.90;;;;;;5093395;28;20237;-63
2023/07/25 10:16:22;;;;;;;0.00;0.00;;;22.80;99.90;;;;;;5093079;28;20179;-63
2023/07/25 10:18:57;;;;;;;0.00;0.00;;;22.30;99.90;;;;;;5093214;28;20229;-63
2023/07/25 10:21:27;;;;;;;0.08;0.08;;;21.40;99.90;;;;;;5092953;28;20183;-63
2023/07/25 10:24:00;;;;;;;0.00;0.00;;;20.50;99.90;;;;;;5093064;28;20225;-63
2023/07/25 10:26:26;;;;;;;0.00;0.00;;;19.80;99.90;;;;;;5092999;28;20176;-63
2023/07/25 10:28:52;;;;;;;0.00;0.00;;;19.40;99.90;;;;;;5092912;28;20228;-63
2023/07/25 10:31:22;;;;;;;0.00;0.00;;;19.10;99.90;;;;;;5092708;28;20218;-63
2023/07/25 10:33:54;;;;;;;0.00;0.00;;;19.10;99.90;;;;;;5092966;28;20184;-63
2023/07/25 10:36:24;;;;;;;0.00;0.00;;;19.00;99.90;;;;;;5092631;28;20627;-63
2023/07/25 10:38:50;;;;;;;0.00;0.00;;;19.10;99.90;;;;;;5092674;28;20665;-63
2023/07/25 10:41:16;;;;;;;0.00;0.00;;;19.20;99.90;;;;;;5092550;28;20245;-64
2023/07/25 10:43:44;;;;;;;0.00;0.00;;;19.50;99.90;;;;;;5092674;28;20814;-64
2023/07/25 10:46:15;;;;;;;0.00;0.00;;;19.80;99.90;;;;;;5092366;28;20176;-64
2023/07/25 10:48:45;;;;;;;0.00;0.00;;;19.90;99.90;;;;;;5092541;28;20541;-64
2023/07/25 10:51:13;;;;;;;0.00;0.00;;;20.00;99.90;;;;;;5092334;28;20184;-64
2023/07/25 10:53:39;;;;;;;0.00;0.00;;;20.20;99.90;;;;;;5092302;28;20800;-64
2023/07/25 10:56:05;;;;;;;0.00;0.00;;;20.30;99.90;;;;;;5092401;28;20537;-64
2023/07/25 10:58:31;;;;;;;0.00;0.00;;;20.30;99.90;;;;;;5092247;28;20176;-64
2023/07/25 11:00:58;;;;;;;0.00;0.00;;;20.30;99.90;;;;;;5092314;28;20164;-64
2023/07/25 11:03:27;;;;;;;0.00;0.00;;;20.20;99.90;;;;;;5092165;28;20164;-64
2023/07/25 11:06:12;;;;;;;0.00;0.00;;;20.10;99.90;;;;;;5092209;28;20200;-64
2023/07/25 11:08:42;;;;;;;0.00;0.00;;;20.00;99.90;;;;;;5091896;28;20236;-63
2023/07/25 11:11:12;;;;;;;0.00;0.00;;;20.00;99.90;;;;;;5091602;28;20547;-64
2023/07/25 11:13:40;;;;;;;0.00;0.00;;;20.00;99.90;;;;;;5091950;28;20314;-64
2023/07/25 11:16:08;;;;;;;0.00;0.00;;;20.00;99.90;;;;;;5091991;28;20211;-64
2023/07/25 11:18:37;;;;;;;0.00;0.00;;;20.00;99.90;;;;;;5091895;28;20217;-64
2023/07/25 11:21:05;;;;;;;0.00;0.00;;;19.90;99.90;;;;;;5092045;28;20172;-64
2023/07/25 11:23:31;;;;;;;0.00;0.00;;;19.70;99.90;;;;;;5091938;28;20172;-64
2023/07/25 11:25:59;;;;;;;0.00;0.00;;;19.70;99.90;;;;;;5091927;28;20191;-64
2023/07/25 11:28:25;;;;;;;0.00;0.00;;;19.60;99.90;;;;;;5091575;28;20239;-63
2023/07/25 11:30:54;;;;;;;0.00;0.00;;;19.40;99.90;;;;;;5091781;28;20572;-63
2023/07/25 11:33:20;;;;;;;0.00;0.00;;;19.40;99.90;;;;;;5090442;28;20208;-63
2023/07/25 11:35:51;;;;;;;0.00;0.00;;;19.20;99.90;;;;;;5091776;28;20182;-63
2023/07/25 11:38:17;;;;;;;0.00;0.00;;;19.00;99.90;;;;;;5091616;28;20172;-62
2023/07/25 11:40:50;;;;;;;0.00;0.00;;;18.90;99.90;;;;;;5091594;28;20196;-63
2023/07/25 11:43:15;;;;;;;0.00;0.00;;;18.70;99.90;;;;;;5091436;28;20179;-63
2023/07/25 11:45:44;;;;;;;0.00;0.00;;;18.60;99.90;;;;;;5091395;28;20172;-63
2023/07/25 11:48:10;;;;;;;0.00;0.00;;;18.50;99.90;;;;;;5091547;28;20322;-63
2023/07/25 11:50:36;;;;;;;0.00;0.00;;;18.40;99.90;;;;;;5091412;28;20255;-63
2023/07/25 11:53:02;;;;;;;0.00;0.00;;;18.30;99.90;;;;;;5091239;28;20212;-63
2023/07/25 11:55:28;;;;;;;0.00;0.00;;;18.20;99.90;;;;;;5091248;28;20203;-63
2023/07/25 11:57:54;;;;;;;0.00;0.00;;;18.10;99.90;;;;;;5091400;28;20226;-63
2023/07/25 12:00:22;;;;;;;0.00;0.00;;;18.10;99.90;;;;;;5091148;28;20172;-63
2023/07/25 12:02:48;;;;;;;0.00;0.00;;;18.00;99.90;;;;;;5091314;28;20172;-63
2023/07/25 12:05:30;;;;;;;0.00;0.00;;;17.90;99.90;;;;;;5091161;28;20194;-63
2023/07/25 12:08:00;;;;;;;0.00;0.00;;;17.80;99.90;;;;;;5091293;28;20172;-64
2023/07/25 12:10:38;;;;;;;0.00;0.00;;;17.70;99.90;;;;;;5091083;28;20200;-63
2023/07/25 12:13:08;;;;;;;0.00;0.00;;;17.70;99.90;;;;;;5091199;28;20219;-63
2023/07/25 12:15:43;;;;;;;0.00;0.00;;;17.50;99.90;;;;;;5091420;28;20164;-63
2023/07/25 12:18:29;;;;;;;0.00;0.00;;;17.40;99.90;;;;;;5091140;28;20263;-63
2023/07/25 12:20:56;;;;;;;0.00;0.00;;;17.40;99.90;;;;;;5089747;28;20190;-63
2023/07/25 12:23:33;;;;;;;0.00;0.00;;;17.40;99.90;;;;;;5092256;28;20168;-63
2023/07/25 12:26:02;;;;;;;0.00;0.00;;;17.50;99.90;;;;;;5095215;28;20575;-63
2023/07/25 12:28:44;;;;;;;0.00;0.00;;;17.60;99.90;;;;;;5094871;28;20286;-63
2023/07/25 12:31:11;;;;;;;0.00;0.00;;;17.90;99.90;;;;;;5095075;28;20258;-63
2023/07/25 12:33:36;;;;;;;0.00;0.00;;;18.10;99.90;;;;;;5094933;28;20211;-63
2023/07/25 12:36:02;;;;;;;0.00;0.00;;;18.20;99.90;;;;;;5094810;28;20259;-63
2023/07/25 12:38:28;;;;;;;0.00;0.00;;;18.40;99.90;;;;;;5094845;28;20179;-63
2023/07/25 12:40:53;;;;;;;0.00;0.00;;;18.60;99.90;;;;;;5093378;28;20172;-63
2023/07/25 12:43:20;;;;;;;0.00;0.00;;;18.90;99.90;;;;;;5094724;28;20177;-63